Time;durP1;ratioP1;P1;durP2;ratioP2;P2;SDS_P1;SDS_P2;PMS_P1;PMS_P2;Temp;Humidity;BMP_temperature;BMP_pressure;BME280_temperature;BME280_humidity;BME280_pressure;Samples;Min_cycle;Max_cycle;Signal;HPM_P1;HPM_P2
2022/11/20 00:01:39;;;;;;;29.00;9.20;;;;;;;;;;106707;1310;22048;-79
2022/11/20 00:04:09;;;;;;;25.70;9.60;;;;;;;;;;106678;1305;22723;-79
2022/11/20 00:06:38;;;;;;;26.50;8.60;;;;;;;;;;106677;1310;22757;-79
2022/11/20 00:09:10;;;;;;;26.30;8.90;;;;;;;;;;106597;1311;21969;-79
2022/11/20 00:18:38;;;;;;;27.70;10.20;;;;;;;;;;100419;1343;544765;-80
2022/11/20 00:21:07;;;;;;;27.10;10.20;;;;;;;;;;102480;1319;24231;-80
2022/11/20 00:23:33;;;;;;;28.20;10.80;;;;;;;;;;103075;1310;22594;-79
2022/11/20 00:26:01;;;;;;;27.00;9.90;;;;;;;;;;103214;1311;22426;-83
2022/11/20 00:28:28;;;;;;;26.50;9.80;;;;;;;;;;103034;1310;26581;-82
2022/11/20 00:31:14;;;;;;;25.90;10.70;;;;;;;;;;102937;1310;22496;-80
2022/11/20 00:33:42;;;;;;;28.00;10.30;;;;;;;;;;102362;1310;24229;-82
2022/11/20 00:36:13;;;;;;;27.40;10.50;;;;;;;;;;103032;1310;25627;-84
2022/11/20 00:38:40;;;;;;;28.60;9.90;;;;;;;;;;103296;1310;25367;-79
2022/11/20 00:41:08;;;;;;;29.10;10.00;;;;;;;;;;103190;1310;22469;-82
2022/11/20 00:43:35;;;;;;;31.00;9.90;;;;;;;;;;103028;1304;25248;-81
2022/11/20 00:46:09;;;;;;;26.10;9.80;;;;;;;;;;103293;1310;22593;-83
2022/11/20 00:48:36;;;;;;;26.90;10.30;;;;;;;;;;103234;1310;24277;-82
2022/11/20 00:51:03;;;;;;;27.00;9.00;;;;;;;;;;103058;1310;25227;-80
2022/11/20 00:53:30;;;;;;;30.30;10.00;;;;;;;;;;103268;1294;25290;-82
2022/11/20 00:56:04;;;;;;;34.50;11.00;;;;;;;;;;103058;1310;23117;-81
2022/11/20 00:58:32;;;;;;;31.30;11.50;;;;;;;;;;103071;1310;22475;-84
2022/11/20 01:01:04;;;;;;;32.00;12.60;;;;;;;;;;103271;1301;22467;-84
2022/11/20 01:03:32;;;;;;;30.50;11.70;;;;;;;;;;103287;1310;22583;-82
2022/11/20 01:06:03;;;;;;;34.50;12.30;;;;;;;;;;103261;1310;22474;-82
2022/11/20 01:08:34;;;;;;;31.40;11.10;;;;;;;;;;103204;1310;22512;-81
2022/11/20 01:11:01;;;;;;;34.30;11.30;;;;;;;;;;103226;1309;22519;-84
2022/11/20 01:13:38;;;;;;;31.50;12.00;;;;;;;;;;103042;1305;22471;-81
2022/11/20 01:16:09;;;;;;;30.40;10.60;;;;;;;;;;103315;1310;25268;-80
2022/11/20 01:18:37;;;;;;;30.40;10.60;;;;;;;;;;103081;1310;24202;-81
2022/11/20 01:21:14;;;;;;;25.90;9.40;;;;;;;;;;103331;1309;22474;-81
2022/11/20 01:23:42;;;;;;;28.90;10.60;;;;;;;;;;103196;1310;22480;-83
2022/11/20 01:26:10;;;;;;;24.50;9.20;;;;;;;;;;103195;1310;22541;-80
2022/11/20 01:28:37;;;;;;;32.60;11.20;;;;;;;;;;103529;1298;25369;-78
2022/11/20 01:31:33;;;;;;;29.30;11.10;;;;;;;;;;103443;1307;22475;-80
2022/11/20 01:34:02;;;;;;;27.50;9.90;;;;;;;;;;103414;1306;24677;-83
2022/11/20 01:36:29;;;;;;;28.30;10.40;;;;;;;;;;103495;1305;24308;-80
2022/11/20 01:38:57;;;;;;;24.40;9.50;;;;;;;;;;103504;1305;24245;-80
2022/11/20 01:44:11;;;;;;;27.00;10.30;;;;;;;;;;103590;1306;24247;-83
2022/11/20 01:46:58;;;;;;;27.60;10.40;;;;;;;;;;103574;1306;24002;-82
2022/11/20 01:49:30;;;;;;;24.80;9.40;;;;;;;;;;103702;1304;22473;-78
2022/11/20 01:51:59;;;;;;;29.80;11.00;;;;;;;;;;103533;1307;24238;-81
2022/11/20 01:54:35;;;;;;;27.20;9.70;;;;;;;;;;103410;1307;24343;-84
2022/11/20 01:57:03;;;;;;;27.00;9.80;;;;;;;;;;103518;1306;22587;-83
2022/11/20 01:59:30;;;;;;;24.80;9.00;;;;;;;;;;103500;1306;23878;-85
2022/11/20 02:01:57;;;;;;;28.20;10.00;;;;;;;;;;103521;1306;24319;-81
2022/11/20 02:04:24;;;;;;;27.60;9.70;;;;;;;;;;103203;1304;22726;-81
2022/11/20 02:06:57;;;;;;;24.20;9.10;;;;;;;;;;103563;1306;25331;-80
2022/11/20 02:09:24;;;;;;;23.40;9.30;;;;;;;;;;106931;1304;22116;-78
2022/11/20 02:15:44;;;;;;;27.10;9.50;;;;;;;;;;106974;1306;22042;-79
2022/11/20 02:18:11;;;;;;;29.10;10.60;;;;;;;;;;106767;1306;22171;-79
2022/11/20 02:20:39;;;;;;;24.90;9.20;;;;;;;;;;106911;1304;22722;-78
2022/11/20 02:23:12;;;;;;;24.90;9.20;;;;;;;;;;106896;1307;22081;-78
2022/11/20 02:25:39;;;;;;;25.40;8.30;;;;;;;;;;106972;1307;22118;-78
2022/11/20 02:28:06;;;;;;;23.90;8.40;;;;;;;;;;106962;1307;22165;-79
2022/11/20 02:30:32;;;;;;;24.60;9.00;;;;;;;;;;106786;1306;22081;-78
2022/11/20 02:32:59;;;;;;;22.70;8.20;;;;;;;;;;106933;1306;22096;-79
2022/11/20 02:35:26;;;;;;;23.70;8.30;;;;;;;;;;106900;1305;22749;-78
2022/11/20 02:37:56;;;;;;;22.40;8.40;;;;;;;;;;106892;1306;22154;-79
2022/11/20 02:40:23;;;;;;;21.00;8.10;;;;;;;;;;106933;1291;22757;-79
2022/11/20 02:42:53;;;;;;;20.80;8.60;;;;;;;;;;106759;1307;22142;-79
2022/11/20 02:45:20;;;;;;;22.00;7.90;;;;;;;;;;106759;1307;22038;-79
2022/11/20 02:47:46;;;;;;;23.70;8.50;;;;;;;;;;106907;1305;22871;-79
2022/11/20 02:50:13;;;;;;;21.00;8.20;;;;;;;;;;106735;1306;22323;-79
2022/11/20 02:52:39;;;;;;;23.50;9.00;;;;;;;;;;106750;1306;22099;-79
2022/11/20 02:55:06;;;;;;;23.20;8.20;;;;;;;;;;106876;1306;22753;-78
2022/11/20 02:57:33;;;;;;;24.30;8.40;;;;;;;;;;106927;1306;22153;-79
2022/11/20 03:00:00;;;;;;;22.20;8.50;;;;;;;;;;107212;1286;22032;-79
2022/11/20 03:02:29;;;;;;;21.90;8.20;;;;;;;;;;106900;1306;22161;-79
2022/11/20 03:04:56;;;;;;;22.40;8.80;;;;;;;;;;106915;1306;22146;-78
2022/11/20 03:07:23;;;;;;;23.80;8.70;;;;;;;;;;106758;1298;22094;-79
2022/11/20 03:09:50;;;;;;;25.60;10.30;;;;;;;;;;106748;1306;22069;-79
2022/11/20 03:12:17;;;;;;;24.60;10.10;;;;;;;;;;106881;1302;22586;-79
2022/11/20 03:14:43;;;;;;;24.80;9.40;;;;;;;;;;106900;1306;22077;-78
2022/11/20 03:17:10;;;;;;;22.70;8.90;;;;;;;;;;106908;1306;22054;-78
2022/11/20 03:19:37;;;;;;;21.50;8.80;;;;;;;;;;106795;1306;22073;-78
2022/11/20 03:22:03;;;;;;;24.20;9.00;;;;;;;;;;106911;1306;22066;-79
2022/11/20 03:24:30;;;;;;;21.50;8.50;;;;;;;;;;106933;1306;22086;-79
2022/11/20 03:26:56;;;;;;;22.20;9.10;;;;;;;;;;106920;1306;22060;-78
2022/11/20 03:29:23;;;;;;;22.80;8.50;;;;;;;;;;106917;1306;22055;-79
2022/11/20 03:31:50;;;;;;;22.60;8.00;;;;;;;;;;106861;1306;22077;-79
2022/11/20 03:34:16;;;;;;;19.30;7.20;;;;;;;;;;106927;1305;22765;-79
2022/11/20 03:36:43;;;;;;;19.30;7.60;;;;;;;;;;106919;1306;22093;-79
2022/11/20 03:39:10;;;;;;;20.70;7.00;;;;;;;;;;106886;1306;21959;-79
2022/11/20 03:41:38;;;;;;;20.40;8.30;;;;;;;;;;106871;1307;21996;-79
2022/11/20 03:44:07;;;;;;;18.60;7.00;;;;;;;;;;106724;1303;22076;-79
2022/11/20 03:46:34;;;;;;;19.90;7.30;;;;;;;;;;106767;1306;22050;-79
2022/11/20 03:49:01;;;;;;;22.20;7.60;;;;;;;;;;106896;1298;22118;-79
2022/11/20 03:51:29;;;;;;;18.70;6.60;;;;;;;;;;106760;1306;22335;-79
2022/11/20 03:53:57;;;;;;;16.30;6.10;;;;;;;;;;106772;1306;22747;-79
2022/11/20 03:56:26;;;;;;;20.30;7.70;;;;;;;;;;106919;1305;22037;-79
2022/11/20 03:58:53;;;;;;;18.10;7.20;;;;;;;;;;106939;1306;22071;-79
2022/11/20 04:01:21;;;;;;;17.50;5.90;;;;;;;;;;106886;1306;21970;-79
2022/11/20 04:03:48;;;;;;;18.80;6.70;;;;;;;;;;106879;1306;22080;-78
2022/11/20 04:06:16;;;;;;;24.40;8.60;;;;;;;;;;106770;1306;22065;-79
2022/11/20 04:08:44;;;;;;;22.60;8.00;;;;;;;;;;106762;1306;22042;-78
2022/11/20 04:11:15;;;;;;;21.00;8.20;;;;;;;;;;106701;1306;22745;-78
2022/11/20 04:13:42;;;;;;;24.00;7.60;;;;;;;;;;106782;1306;22031;-79
2022/11/20 04:16:09;;;;;;;22.00;8.20;;;;;;;;;;106807;1306;22089;-79
2022/11/20 04:18:36;;;;;;;23.20;7.70;;;;;;;;;;106786;1306;22113;-78
2022/11/20 04:21:04;;;;;;;23.60;8.60;;;;;;;;;;106917;1305;22068;-79
2022/11/20 04:23:31;;;;;;;20.70;7.40;;;;;;;;;;106743;1300;22109;-79
2022/11/20 04:26:04;;;;;;;19.70;7.10;;;;;;;;;;107132;1297;22041;-79
2022/11/20 04:28:31;;;;;;;23.10;8.80;;;;;;;;;;106889;1306;22012;-79
2022/11/20 04:31:02;;;;;;;20.40;7.30;;;;;;;;;;106756;1306;22074;-79
2022/11/20 04:33:29;;;;;;;17.50;6.40;;;;;;;;;;106885;1306;22103;-79
2022/11/20 04:35:59;;;;;;;22.30;7.90;;;;;;;;;;106974;1305;22086;-79
2022/11/20 04:38:26;;;;;;;22.70;7.40;;;;;;;;;;106778;1306;22125;-79
2022/11/20 04:40:55;;;;;;;20.40;7.80;;;;;;;;;;106785;1306;22090;-79
2022/11/20 04:43:22;;;;;;;22.60;7.00;;;;;;;;;;106896;1298;22287;-79
2022/11/20 04:45:52;;;;;;;20.20;7.10;;;;;;;;;;106778;1302;22686;-78
2022/11/20 04:48:19;;;;;;;24.20;8.40;;;;;;;;;;106758;1307;22118;-79
2022/11/20 04:50:46;;;;;;;24.10;8.70;;;;;;;;;;106776;1306;22651;-79
2022/11/20 04:53:12;;;;;;;22.40;8.60;;;;;;;;;;106885;1306;22347;-79
2022/11/20 04:55:39;;;;;;;22.10;8.20;;;;;;;;;;106934;1301;22080;-78
2022/11/20 04:58:06;;;;;;;21.40;7.80;;;;;;;;;;106802;1303;22043;-79
2022/11/20 05:00:33;;;;;;;20.80;7.20;;;;;;;;;;107077;1299;22090;-79
2022/11/20 05:02:59;;;;;;;18.40;7.60;;;;;;;;;;106763;1299;22360;-79
2022/11/20 05:05:26;;;;;;;20.30;8.50;;;;;;;;;;106766;1301;22065;-79
2022/11/20 05:07:55;;;;;;;23.50;8.60;;;;;;;;;;106900;1301;22059;-79
2022/11/20 05:10:21;;;;;;;21.80;8.40;;;;;;;;;;106733;1306;22069;-79
2022/11/20 05:12:48;;;;;;;22.20;8.60;;;;;;;;;;106728;1295;22078;-78
2022/11/20 05:15:15;;;;;;;22.70;8.30;;;;;;;;;;107079;1286;22088;-79
2022/11/20 05:17:46;;;;;;;24.00;7.90;;;;;;;;;;106767;1302;22641;-79
2022/11/20 05:20:13;;;;;;;18.10;6.90;;;;;;;;;;106772;1306;22085;-79
2022/11/20 05:22:39;;;;;;;22.60;9.10;;;;;;;;;;107051;1299;22069;-79
2022/11/20 05:25:06;;;;;;;25.00;9.00;;;;;;;;;;106858;1293;22060;-79
2022/11/20 05:27:33;;;;;;;23.00;8.40;;;;;;;;;;106707;1306;22686;-79
2022/11/20 05:29:59;;;;;;;22.80;9.00;;;;;;;;;;106772;1301;22561;-79
2022/11/20 05:32:26;;;;;;;25.70;10.00;;;;;;;;;;106877;1307;22133;-79
2022/11/20 05:34:53;;;;;;;22.70;8.60;;;;;;;;;;106875;1306;22048;-79
2022/11/20 05:37:19;;;;;;;22.20;8.30;;;;;;;;;;106873;1306;22077;-79
2022/11/20 05:39:46;;;;;;;27.20;9.90;;;;;;;;;;106775;1306;22076;-79
2022/11/20 05:42:31;;;;;;;23.10;8.70;;;;;;;;;;106756;1303;21997;-79
2022/11/20 05:44:58;;;;;;;24.50;8.70;;;;;;;;;;106747;1306;21972;-78
2022/11/20 05:47:25;;;;;;;25.90;10.30;;;;;;;;;;106730;1306;22610;-79
2022/11/20 05:49:52;;;;;;;25.30;10.50;;;;;;;;;;106864;1307;21816;-78
2022/11/20 05:52:18;;;;;;;27.70;9.80;;;;;;;;;;106842;1306;22107;-78
2022/11/20 05:54:45;;;;;;;30.60;10.50;;;;;;;;;;106729;1302;22805;-79
2022/11/20 05:57:12;;;;;;;24.70;10.60;;;;;;;;;;106729;1306;22372;-79
2022/11/20 05:59:38;;;;;;;25.90;10.70;;;;;;;;;;106729;1306;22760;-79
2022/11/20 06:02:05;;;;;;;23.70;9.90;;;;;;;;;;106858;1306;22147;-79
2022/11/20 06:04:35;;;;;;;25.40;10.10;;;;;;;;;;106764;1303;22020;-79
2022/11/20 06:07:02;;;;;;;23.40;9.30;;;;;;;;;;106869;1306;22647;-79
2022/11/20 06:09:29;;;;;;;25.90;10.60;;;;;;;;;;106728;1306;22078;-79
2022/11/20 06:11:56;;;;;;;26.40;10.40;;;;;;;;;;106731;1307;22107;-79
2022/11/20 06:14:23;;;;;;;27.80;10.60;;;;;;;;;;106681;1307;23158;-79
2022/11/20 06:16:50;;;;;;;35.80;12.80;;;;;;;;;;106699;1303;22075;-79
2022/11/20 06:19:17;;;;;;;31.80;11.50;;;;;;;;;;106716;1309;22060;-79
2022/11/20 06:21:43;;;;;;;29.50;10.30;;;;;;;;;;106672;1309;22056;-78
2022/11/20 06:24:10;;;;;;;27.00;9.10;;;;;;;;;;106691;1307;22064;-79
2022/11/20 06:26:37;;;;;;;26.10;9.10;;;;;;;;;;106804;1308;22098;-79
2022/11/20 06:29:04;;;;;;;30.70;12.10;;;;;;;;;;106640;1307;21984;-79
2022/11/20 06:31:34;;;;;;;31.40;11.30;;;;;;;;;;106707;1309;22235;-79
2022/11/20 06:34:01;;;;;;;29.60;10.80;;;;;;;;;;106781;1310;22127;-79
2022/11/20 06:36:28;;;;;;;29.20;11.70;;;;;;;;;;106756;1308;22064;-79
2022/11/20 06:38:55;;;;;;;29.80;12.10;;;;;;;;;;106741;1308;21710;-79
2022/11/20 06:41:22;;;;;;;22.20;9.10;;;;;;;;;;106782;1308;22463;-79
2022/11/20 06:43:49;;;;;;;28.30;11.50;;;;;;;;;;106741;1307;22742;-78
2022/11/20 06:46:19;;;;;;;26.60;9.70;;;;;;;;;;106751;1307;22776;-79
2022/11/20 06:48:46;;;;;;;27.80;10.70;;;;;;;;;;106669;1309;22069;-78
2022/11/20 06:51:13;;;;;;;28.60;11.00;;;;;;;;;;107038;1299;22392;-79
2022/11/20 06:53:40;;;;;;;26.00;10.40;;;;;;;;;;106706;1309;22081;-78
2022/11/20 06:56:07;;;;;;;28.80;10.40;;;;;;;;;;106748;1308;22084;-79
2022/11/20 06:58:34;;;;;;;29.80;11.60;;;;;;;;;;106762;1301;22101;-79
2022/11/20 07:01:03;;;;;;;31.30;12.10;;;;;;;;;;106734;1309;22114;-79
2022/11/20 07:03:30;;;;;;;32.80;13.20;;;;;;;;;;106842;1307;22047;-79
2022/11/20 07:05:57;;;;;;;29.80;12.30;;;;;;;;;;106740;1309;22063;-79
2022/11/20 07:08:24;;;;;;;33.80;12.40;;;;;;;;;;106778;1308;22747;-79
2022/11/20 07:10:51;;;;;;;34.90;13.90;;;;;;;;;;106771;1310;22084;-78
2022/11/20 07:13:18;;;;;;;38.70;14.10;;;;;;;;;;106658;1310;22149;-79
2022/11/20 07:15:46;;;;;;;37.30;15.20;;;;;;;;;;106660;1307;22111;-78
2022/11/20 07:18:13;;;;;;;40.80;15.90;;;;;;;;;;106633;1307;22703;-78
2022/11/20 07:20:40;;;;;;;49.80;17.00;;;;;;;;;;106668;1307;22074;-78
2022/11/20 07:23:08;;;;;;;41.80;17.40;;;;;;;;;;106648;1303;22081;-79
2022/11/20 07:25:35;;;;;;;45.00;17.70;;;;;;;;;;106619;1304;22046;-79
2022/11/20 07:28:03;;;;;;;47.80;18.10;;;;;;;;;;106679;1303;21879;-79
2022/11/20 07:30:31;;;;;;;43.10;16.30;;;;;;;;;;106605;1303;22093;-79
2022/11/20 07:32:58;;;;;;;39.90;16.30;;;;;;;;;;106712;1302;22801;-78
2022/11/20 07:35:26;;;;;;;35.40;14.60;;;;;;;;;;106801;1302;22098;-78
2022/11/20 07:37:53;;;;;;;35.90;14.20;;;;;;;;;;106663;1307;22099;-79
2022/11/20 07:40:20;;;;;;;44.90;16.30;;;;;;;;;;106618;1307;22039;-79
2022/11/20 07:42:51;;;;;;;40.10;14.60;;;;;;;;;;106598;1307;22080;-79
2022/11/20 07:45:19;;;;;;;41.40;16.90;;;;;;;;;;106617;1307;22084;-79
2022/11/20 07:47:46;;;;;;;40.40;16.90;;;;;;;;;;106577;1296;22075;-79
2022/11/20 07:50:14;;;;;;;42.10;17.60;;;;;;;;;;106600;1300;22080;-79
2022/11/20 07:52:41;;;;;;;42.70;16.80;;;;;;;;;;106624;1310;22098;-79
2022/11/20 07:55:09;;;;;;;35.30;14.90;;;;;;;;;;106627;1310;22141;-79
2022/11/20 07:57:37;;;;;;;35.20;14.00;;;;;;;;;;106705;1303;22131;-78
2022/11/20 08:00:05;;;;;;;37.80;15.00;;;;;;;;;;106798;1307;22079;-79
2022/11/20 08:02:42;;;;;;;36.90;15.80;;;;;;;;;;106803;1307;22118;-78
2022/11/20 08:05:10;;;;;;;41.20;16.60;;;;;;;;;;106672;1295;22746;-78
2022/11/20 08:07:41;;;;;;;40.00;17.50;;;;;;;;;;106746;1307;22084;-78
2022/11/20 08:10:10;;;;;;;42.70;17.40;;;;;;;;;;106702;1309;22849;-78
2022/11/20 08:15:33;;;;;;;40.10;17.40;;;;;;;;;;106680;1310;21901;-78
2022/11/20 08:18:07;;;;;;;39.70;17.50;;;;;;;;;;106685;1296;21827;-78
2022/11/20 08:20:37;;;;;;;44.20;18.60;;;;;;;;;;106661;1308;22862;-78
2022/11/20 08:23:08;;;;;;;48.10;19.40;;;;;;;;;;106705;1309;22053;-78
2022/11/20 08:25:37;;;;;;;42.90;18.30;;;;;;;;;;106716;1310;22801;-78
2022/11/20 08:28:07;;;;;;;41.50;17.10;;;;;;;;;;106662;1310;22046;-79
2022/11/20 08:30:37;;;;;;;41.40;17.40;;;;;;;;;;106693;1301;22106;-78
2022/11/20 08:33:08;;;;;;;35.60;15.10;;;;;;;;;;106652;1309;22019;-78
2022/11/20 08:35:40;;;;;;;39.90;16.80;;;;;;;;;;106704;1310;22137;-78
2022/11/20 08:38:10;;;;;;;35.00;16.20;;;;;;;;;;106734;1302;22064;-80
2022/11/20 08:40:38;;;;;;;53.70;18.30;;;;;;;;;;106876;1307;22697;-81
2022/11/20 08:43:07;;;;;;;46.60;18.20;;;;;;;;;;106913;1307;22474;-83
2022/11/20 08:45:37;;;;;;;37.10;14.70;;;;;;;;;;106755;1310;22049;-81
2022/11/20 08:48:06;;;;;;;49.00;17.60;;;;;;;;;;106864;1307;22080;-81
2022/11/20 08:50:36;;;;;;;69.60;21.90;;;;;;;;;;106888;1306;22093;-81
2022/11/20 08:53:06;;;;;;;52.50;19.40;;;;;;;;;;106725;1307;22052;-80
2022/11/20 08:55:36;;;;;;;56.20;20.00;;;;;;;;;;106727;1307;22754;-80
2022/11/20 08:58:06;;;;;;;41.80;18.50;;;;;;;;;;106682;1309;22204;-80
2022/11/20 09:00:36;;;;;;;37.00;16.50;;;;;;;;;;106693;1303;22087;-81
2022/11/20 09:03:05;;;;;;;35.10;15.20;;;;;;;;;;106650;1296;22122;-80
2022/11/20 09:05:35;;;;;;;37.60;16.30;;;;;;;;;;106783;1299;22130;-80
2022/11/20 09:08:03;;;;;;;37.30;16.00;;;;;;;;;;106766;1308;22076;-81
2022/11/20 09:17:35;;;;;;;39.90;17.60;;;;;;;;;;100259;1346;546254;-85
2022/11/20 09:20:00;;;;;;;43.60;19.10;;;;;;;;;;102576;1317;22513;-87
2022/11/20 09:22:28;;;;;;;47.40;20.50;;;;;;;;;;102650;1318;22553;-81
2022/11/20 09:24:54;;;;;;;40.70;19.40;;;;;;;;;;102402;1317;22522;-81
2022/11/20 09:27:21;;;;;;;43.90;18.50;;;;;;;;;;102589;1305;25338;-80
2022/11/20 09:29:47;;;;;;;42.70;18.40;;;;;;;;;;101621;1317;1363844;-81
2022/11/20 09:32:13;;;;;;;41.80;18.80;;;;;;;;;;102780;1317;23283;-84
2022/11/20 09:34:39;;;;;;;40.00;17.70;;;;;;;;;;103499;1308;25291;-81
2022/11/20 09:37:05;;;;;;;47.20;19.20;;;;;;;;;;103216;1305;23195;-84
2022/11/20 09:39:31;;;;;;;48.50;20.50;;;;;;;;;;103349;1310;22467;-82
2022/11/20 09:42:00;;;;;;;42.60;19.40;;;;;;;;;;103094;1310;25673;-84
2022/11/20 09:44:45;;;;;;;42.50;19.70;;;;;;;;;;103255;1310;22480;-85
2022/11/20 09:47:15;;;;;;;44.70;19.70;;;;;;;;;;103310;1310;22469;-82
2022/11/20 09:50:00;;;;;;;45.00;19.90;;;;;;;;;;103026;1310;22543;-81
2022/11/20 09:52:26;;;;;;;40.00;18.10;;;;;;;;;;103250;1310;22659;-87
2022/11/20 09:54:53;;;;;;;39.60;18.00;;;;;;;;;;103271;1310;24034;-82
2022/11/20 09:57:20;;;;;;;37.10;16.50;;;;;;;;;;103449;1310;25344;-79
2022/11/20 09:59:49;;;;;;;39.70;17.70;;;;;;;;;;103786;1296;22461;-81
2022/11/20 10:02:18;;;;;;;38.10;17.00;;;;;;;;;;103329;1310;24380;-82
2022/11/20 10:04:47;;;;;;;30.80;13.90;;;;;;;;;;103510;1310;25250;-84
2022/11/20 10:07:16;;;;;;;24.70;10.80;;;;;;;;;;103351;1307;23219;-85
2022/11/20 10:09:48;;;;;;;21.30;8.90;;;;;;;;;;103368;1309;22462;-84
2022/11/20 10:12:13;;;;;;;18.40;8.40;;;;;;;;;;103326;1310;23247;-82
2022/11/20 10:14:45;;;;;;;18.20;8.70;;;;;;;;;;103261;1310;24240;-81
2022/11/20 10:17:26;;;;;;;17.30;8.90;;;;;;;;;;103239;1301;22826;-85
2022/11/20 10:19:58;;;;;;;16.20;7.60;;;;;;;;;;103278;1310;23889;-82
2022/11/20 10:22:31;;;;;;;18.80;9.10;;;;;;;;;;103324;1307;22533;-84
2022/11/20 10:25:13;;;;;;;18.90;7.70;;;;;;;;;;103581;1307;24149;-85
2022/11/20 10:28:18;;;;;;;18.20;8.30;;;;;;;;;;103430;1301;22531;-82
2022/11/20 10:30:45;;;;;;;17.70;7.70;;;;;;;;;;102755;1299;22603;-85
2022/11/20 10:33:11;;;;;;;16.80;7.40;;;;;;;;;;102696;1315;24553;-81
2022/11/20 10:35:42;;;;;;;18.00;8.50;;;;;;;;;;106306;1308;22316;-79
2022/11/20 10:38:34;;;;;;;18.40;8.30;;;;;;;;;;105962;1316;22918;-81
2022/11/20 10:43:47;;;;;;;15.20;6.90;;;;;;;;;;106023;1317;21996;-79
2022/11/20 10:46:18;;;;;;;17.40;7.70;;;;;;;;;;106141;1315;22142;-78
2022/11/20 10:48:45;;;;;;;20.20;8.90;;;;;;;;;;106022;1317;22286;-77
2022/11/20 10:51:29;;;;;;;19.50;8.70;;;;;;;;;;106284;1309;22180;-79
2022/11/20 10:54:14;;;;;;;19.10;8.50;;;;;;;;;;106150;1315;22988;-79
2022/11/20 10:56:47;;;;;;;19.60;8.90;;;;;;;;;;106101;1313;22930;-80
2022/11/20 10:59:22;;;;;;;22.00;10.40;;;;;;;;;;105985;1294;22137;-80
2022/11/20 11:01:49;;;;;;;19.50;9.40;;;;;;;;;;106332;1308;22797;-79
2022/11/20 11:04:23;;;;;;;21.10;10.50;;;;;;;;;;106720;1307;22189;-80
2022/11/20 11:06:51;;;;;;;20.50;9.40;;;;;;;;;;106700;1307;22055;-80
2022/11/20 11:09:21;;;;;;;22.50;10.90;;;;;;;;;;106858;1307;22087;-81
2022/11/20 11:14:51;;;;;;;28.10;11.10;;;;;;;;;;106718;1310;21785;-80
2022/11/20 11:17:26;;;;;;;27.50;11.20;;;;;;;;;;106727;1310;22832;-79
2022/11/20 11:19:58;;;;;;;27.50;10.10;;;;;;;;;;106689;1310;22064;-79
2022/11/20 11:22:24;;;;;;;25.20;10.60;;;;;;;;;;106739;1310;22073;-81
2022/11/20 11:24:54;;;;;;;21.80;9.80;;;;;;;;;;106725;1309;22077;-80
2022/11/20 11:27:20;;;;;;;24.80;10.80;;;;;;;;;;106831;1301;22085;-78
2022/11/20 11:29:46;;;;;;;36.90;15.00;;;;;;;;;;106661;1309;21966;-79
2022/11/20 11:32:12;;;;;;;22.70;10.00;;;;;;;;;;106731;1310;22095;-79
2022/11/20 11:34:38;;;;;;;20.40;9.70;;;;;;;;;;106881;1309;22664;-81
2022/11/20 11:37:05;;;;;;;22.00;10.10;;;;;;;;;;106927;1307;22069;-81
2022/11/20 11:39:33;;;;;;;24.10;10.90;;;;;;;;;;106871;1297;22063;-80
2022/11/20 11:42:00;;;;;;;20.50;9.30;;;;;;;;;;106883;1307;22164;-80
2022/11/20 11:47:31;;;;;;;24.30;11.80;;;;;;;;;;107041;1304;22073;-79
2022/11/20 11:50:10;;;;;;;21.30;10.00;;;;;;;;;;106927;1307;22545;-79
2022/11/20 11:52:43;;;;;;;22.20;10.50;;;;;;;;;;107273;1299;22155;-79
2022/11/20 11:55:12;;;;;;;27.00;11.50;;;;;;;;;;106926;1306;22119;-78
2022/11/20 11:57:56;;;;;;;18.50;8.70;;;;;;;;;;107024;1300;22069;-79
2022/11/20 12:00:23;;;;;;;32.40;13.10;;;;;;;;;;107013;1305;22035;-80
2022/11/20 12:02:56;;;;;;;41.30;15.90;;;;;;;;;;107312;1282;21930;-79
2022/11/20 12:05:29;;;;;;;33.90;13.60;;;;;;;;;;106938;1307;22163;-78
2022/11/20 12:08:13;;;;;;;34.20;14.80;;;;;;;;;;107051;1299;22066;-77
2022/11/20 12:10:46;;;;;;;27.30;12.80;;;;;;;;;;106981;1307;22141;-77
2022/11/20 12:13:25;;;;;;;22.20;10.50;;;;;;;;;;106938;1306;22128;-78
2022/11/20 12:15:51;;;;;;;25.40;11.60;;;;;;;;;;106989;1299;22530;-81
2022/11/20 12:18:19;;;;;;;20.60;9.80;;;;;;;;;;107013;1307;22152;-78
2022/11/20 12:20:53;;;;;;;27.50;11.40;;;;;;;;;;106927;1307;22671;-79
2022/11/20 12:23:26;;;;;;;27.30;11.40;;;;;;;;;;106972;1305;22078;-80
2022/11/20 12:25:54;;;;;;;24.70;11.60;;;;;;;;;;106910;1301;22202;-79
2022/11/20 12:28:20;;;;;;;34.30;15.40;;;;;;;;;;107087;1297;22822;-80
2022/11/20 12:31:02;;;;;;;31.80;13.70;;;;;;;;;;106961;1306;22124;-80
2022/11/20 12:33:40;;;;;;;34.10;14.50;;;;;;;;;;106951;1307;22084;-80
2022/11/20 12:36:09;;;;;;;31.80;13.20;;;;;;;;;;106966;1289;22107;-80
2022/11/20 12:38:58;;;;;;;28.70;11.90;;;;;;;;;;106783;1307;22019;-81
2022/11/20 12:47:34;;;;;;;33.80;14.60;;;;;;;;;;106979;1305;21950;-79
2022/11/20 12:50:18;;;;;;;31.80;13.30;;;;;;;;;;106902;1299;22004;-80
2022/11/20 12:52:48;;;;;;;26.40;10.80;;;;;;;;;;106885;1292;22112;-79
2022/11/20 12:55:28;;;;;;;29.80;13.20;;;;;;;;;;106914;1307;22074;-79
2022/11/20 12:57:58;;;;;;;26.40;11.50;;;;;;;;;;106800;1303;22484;-80
2022/11/20 13:00:24;;;;;;;24.40;11.20;;;;;;;;;;106962;1289;22062;-79
2022/11/20 13:03:02;;;;;;;26.80;12.90;;;;;;;;;;106851;1307;22079;-80
2022/11/20 13:05:37;;;;;;;27.60;13.90;;;;;;;;;;107024;1298;22096;-79
2022/11/20 13:08:07;;;;;;;31.70;15.20;;;;;;;;;;106939;1307;22067;-81
2022/11/20 13:10:43;;;;;;;25.10;12.70;;;;;;;;;;107277;1282;22084;-80
2022/11/20 13:13:09;;;;;;;22.20;10.70;;;;;;;;;;106766;1307;22841;-80
2022/11/20 13:15:35;;;;;;;26.90;12.10;;;;;;;;;;106904;1307;22089;-80
2022/11/20 13:18:02;;;;;;;25.30;11.00;;;;;;;;;;106939;1291;22117;-81
2022/11/20 13:20:29;;;;;;;23.40;11.00;;;;;;;;;;106887;1307;22714;-81
2022/11/20 13:22:59;;;;;;;24.10;12.30;;;;;;;;;;106739;1307;22080;-81
2022/11/20 13:25:26;;;;;;;28.10;13.50;;;;;;;;;;106743;1285;22097;-81
2022/11/20 13:27:53;;;;;;;27.50;13.70;;;;;;;;;;106893;1306;22077;-81
2022/11/20 13:30:21;;;;;;;27.70;13.10;;;;;;;;;;106762;1307;22071;-81
2022/11/20 13:32:55;;;;;;;33.70;16.20;;;;;;;;;;106745;1307;22132;-81
2022/11/20 13:35:34;;;;;;;26.00;13.00;;;;;;;;;;106774;1285;22077;-81
2022/11/20 13:38:02;;;;;;;30.60;14.00;;;;;;;;;;106775;1307;22110;-81
2022/11/20 13:40:28;;;;;;;26.40;12.60;;;;;;;;;;106717;1303;22058;-82
2022/11/20 13:42:57;;;;;;;24.60;12.00;;;;;;;;;;106883;1307;22037;-80
2022/11/20 13:45:27;;;;;;;26.70;12.30;;;;;;;;;;106757;1307;21945;-82
2022/11/20 13:47:54;;;;;;;25.20;11.60;;;;;;;;;;106727;1301;22049;-80
2022/11/20 13:50:44;;;;;;;28.30;13.50;;;;;;;;;;106883;1307;22082;-82
2022/11/20 13:53:20;;;;;;;28.70;13.60;;;;;;;;;;106782;1302;22817;-82
2022/11/20 13:55:54;;;;;;;30.60;14.70;;;;;;;;;;106987;1297;22122;-83
2022/11/20 13:58:39;;;;;;;30.30;14.90;;;;;;;;;;106765;1307;22087;-82
2022/11/20 14:01:09;;;;;;;30.00;13.60;;;;;;;;;;106908;1305;22833;-83
2022/11/20 14:03:35;;;;;;;27.90;13.60;;;;;;;;;;107046;1300;22935;-83
2022/11/20 14:06:04;;;;;;;32.80;15.20;;;;;;;;;;106869;1301;22570;-82
2022/11/20 14:08:39;;;;;;;33.50;16.10;;;;;;;;;;106773;1307;22748;-82
2022/11/20 14:11:06;;;;;;;29.30;13.50;;;;;;;;;;106893;1307;22077;-82
2022/11/20 14:13:32;;;;;;;30.60;13.20;;;;;;;;;;106713;1307;21910;-82
2022/11/20 14:15:58;;;;;;;26.00;11.80;;;;;;;;;;106685;1307;22102;-82
2022/11/20 14:18:26;;;;;;;28.70;13.00;;;;;;;;;;106902;1307;22122;-82
2022/11/20 14:20:52;;;;;;;27.10;12.70;;;;;;;;;;106871;1292;22067;-82
2022/11/20 14:23:28;;;;;;;28.50;12.60;;;;;;;;;;106684;1307;22088;-81
2022/11/20 14:25:54;;;;;;;27.60;13.00;;;;;;;;;;107117;1299;22018;-80
2022/11/20 14:28:25;;;;;;;30.20;13.50;;;;;;;;;;106738;1307;22128;-80
2022/11/20 14:30:51;;;;;;;32.60;14.90;;;;;;;;;;106892;1307;21986;-80
2022/11/20 14:33:19;;;;;;;30.20;12.60;;;;;;;;;;106747;1307;22789;-80
2022/11/20 14:35:47;;;;;;;35.00;14.00;;;;;;;;;;106841;1298;22043;-81
2022/11/20 14:38:18;;;;;;;57.50;20.00;;;;;;;;;;106736;1307;21917;-81
2022/11/20 14:40:44;;;;;;;26.60;11.40;;;;;;;;;;106789;1307;22074;-81
2022/11/20 14:43:17;;;;;;;26.00;11.00;;;;;;;;;;106735;1307;22055;-81
2022/11/20 14:45:43;;;;;;;28.50;12.60;;;;;;;;;;106878;1307;22967;-81
2022/11/20 14:48:10;;;;;;;33.90;15.40;;;;;;;;;;107038;1299;22033;-79
2022/11/20 14:50:38;;;;;;;40.90;16.10;;;;;;;;;;107132;1285;22054;-79
2022/11/20 14:53:04;;;;;;;42.90;15.80;;;;;;;;;;106859;1307;22794;-79
2022/11/20 14:55:30;;;;;;;44.40;17.20;;;;;;;;;;106862;1307;21954;-78
2022/11/20 14:57:58;;;;;;;46.80;19.00;;;;;;;;;;106911;1307;22723;-78
2022/11/20 15:00:24;;;;;;;41.10;17.60;;;;;;;;;;106754;1306;22052;-78